createdAt,value
2019-01-14T00:01:10.366Z,13.67
2019-01-14T00:03:39.812Z,12.43
2019-01-14T00:06:10.198Z,13.10
2019-01-14T00:08:39.947Z,12.63
2019-01-14T00:11:09.406Z,12.70
2019-01-14T00:13:38.902Z,12.17
2019-01-14T00:16:08.365Z,13.10
2019-01-14T00:18:37.908Z,12.23
2019-01-14T00:21:07.403Z,12.50
2019-01-14T00:23:36.878Z,12.23
2019-01-14T00:26:06.326Z,12.03
2019-01-14T00:28:35.811Z,10.80
2019-01-14T00:31:05.284Z,11.63
2019-01-14T00:33:34.725Z,9.80
2019-01-14T00:36:04.197Z,9.63
2019-01-14T00:38:33.653Z,10.73
2019-01-14T00:41:03.140Z,9.97
2019-01-14T00:43:33.809Z,8.77
2019-01-14T00:46:03.244Z,11.77
2019-01-14T00:48:33.775Z,10.40
2019-01-14T00:51:04.074Z,8.40
2019-01-14T00:53:33.497Z,7.87
2019-01-14T00:56:02.976Z,7.27
2019-01-14T00:58:32.422Z,7.30
2019-01-14T01:01:01.875Z,7.20
2019-01-14T01:03:31.686Z,7.80
2019-01-14T01:06:01.423Z,7.50
2019-01-14T01:08:30.858Z,7.20
2019-01-14T01:11:02.688Z,8.70
2019-01-14T01:13:32.127Z,9.77
2019-01-14T01:16:01.562Z,7.33
2019-01-14T01:18:31.033Z,9.90
2019-01-14T01:21:00.484Z,8.90
2019-01-14T01:23:29.929Z,9.23
2019-01-14T01:25:59.807Z,8.63
2019-01-14T01:28:30.663Z,8.43
2019-01-14T01:31:00.595Z,9.50
2019-01-14T01:33:30.077Z,8.70
2019-01-14T01:35:59.525Z,8.20
2019-01-14T01:38:28.973Z,7.60
2019-01-14T01:40:58.461Z,8.80
2019-01-14T01:43:27.898Z,9.47
2019-01-14T01:45:57.336Z,8.80
2019-01-14T01:48:26.837Z,9.07
2019-01-14T01:50:56.289Z,10.80
2019-01-14T01:53:25.765Z,11.63
2019-01-14T01:55:55.279Z,14.03
2019-01-14T01:58:24.720Z,13.43
2019-01-14T02:00:54.163Z,12.07
2019-01-14T02:03:23.662Z,12.27
2019-01-14T02:05:53.141Z,12.73
2019-01-14T02:08:22.581Z,12.90
2019-01-14T02:10:52.079Z,14.23
2019-01-14T02:13:21.528Z,14.57
2019-01-14T02:15:50.979Z,15.23
2019-01-14T02:18:20.485Z,14.43
2019-01-14T02:20:49.959Z,12.20
2019-01-14T02:23:19.409Z,10.67
2019-01-14T02:25:48.908Z,11.37
2019-01-14T02:28:18.344Z,10.93
2019-01-14T02:30:48.107Z,12.00
2019-01-14T02:33:17.571Z,12.77
2019-01-14T02:35:47.043Z,12.67
2019-01-14T02:38:16.502Z,13.17
2019-01-14T02:40:45.965Z,14.07
2019-01-14T02:43:15.482Z,15.03
2019-01-14T02:45:44.927Z,14.60
2019-01-14T02:48:14.397Z,13.70
2019-01-14T02:50:43.877Z,13.87
2019-01-14T02:53:13.338Z,14.03
2019-01-14T02:55:42.805Z,14.93
2019-01-14T02:58:12.314Z,13.33
2019-01-14T03:00:41.752Z,14.20
2019-01-14T03:03:11.189Z,13.00
2019-01-14T03:05:40.699Z,13.13
2019-01-14T03:08:11.666Z,13.97
2019-01-14T03:10:41.229Z,13.30
2019-01-14T03:13:10.714Z,15.33
2019-01-14T03:15:40.170Z,15.70
2019-01-14T03:18:09.612Z,13.80
2019-01-14T03:20:39.120Z,18.13
2019-01-14T03:23:08.600Z,15.53
2019-01-14T03:25:38.013Z,16.57
2019-01-14T03:28:07.505Z,16.23
2019-01-14T03:30:36.953Z,17.10
2019-01-14T03:33:06.430Z,17.83
2019-01-14T03:35:35.918Z,13.40
2019-01-14T03:38:05.379Z,13.50
2019-01-14T03:40:34.836Z,14.33
2019-01-14T03:43:04.418Z,13.63
2019-01-14T03:45:33.862Z,14.57
2019-01-14T03:48:03.324Z,14.27
2019-01-14T03:50:32.881Z,15.10
2019-01-14T03:53:02.313Z,15.33
2019-01-14T03:55:32.166Z,15.93
2019-01-14T03:58:01.681Z,12.50
2019-01-14T04:00:50.143Z,13.40
2019-01-14T04:03:19.711Z,12.27
2019-01-14T04:05:49.161Z,12.13
2019-01-14T04:08:18.628Z,9.33
2019-01-14T04:10:48.076Z,9.53
2019-01-14T04:13:17.574Z,9.23
2019-01-14T04:15:47.021Z,9.73
2019-01-14T04:18:16.494Z,10.10
2019-01-14T04:20:45.965Z,11.00
2019-01-14T04:23:15.413Z,10.20
2019-01-14T04:25:44.863Z,9.37
2019-01-14T04:28:14.357Z,8.30
2019-01-14T04:30:43.793Z,9.97
2019-01-14T04:33:13.239Z,9.83
2019-01-14T04:35:42.718Z,11.03
2019-01-14T04:38:12.176Z,9.97
2019-01-14T04:40:41.615Z,9.27
2019-01-14T04:43:11.097Z,8.50
2019-01-14T04:45:40.536Z,9.40
2019-01-14T04:48:09.957Z,8.70
2019-01-14T04:50:39.417Z,9.47
2019-01-14T04:53:08.864Z,5.43
2019-01-14T04:55:38.370Z,3.87
2019-01-14T04:58:07.830Z,4.80
2019-01-14T05:00:37.272Z,5.97
2019-01-14T05:03:06.769Z,5.97
2019-01-14T05:05:36.377Z,6.37
2019-01-14T05:08:05.832Z,6.17
2019-01-14T05:10:35.281Z,5.67
2019-01-14T05:13:04.778Z,6.33
2019-01-14T05:15:34.229Z,5.50
2019-01-14T05:18:03.657Z,5.37
2019-01-14T05:20:33.145Z,4.90
2019-01-14T05:23:02.723Z,4.87
2019-01-14T05:25:32.137Z,5.13
2019-01-14T05:28:03.623Z,5.63
2019-01-14T05:30:33.083Z,4.93
2019-01-14T05:33:03.620Z,4.83
2019-01-14T05:35:33.113Z,5.27
2019-01-14T05:38:04.972Z,5.47
2019-01-14T05:40:34.419Z,6.60
2019-01-14T05:43:03.897Z,5.80
2019-01-14T05:45:33.310Z,6.50
2019-01-14T05:48:02.779Z,6.77
2019-01-14T05:50:32.237Z,6.07
2019-01-14T05:53:03.710Z,6.80
2019-01-14T05:55:33.143Z,6.77
2019-01-14T05:58:04.665Z,5.27
2019-01-14T06:00:42.883Z,6.90
2019-01-14T06:03:12.383Z,6.83
2019-01-14T06:05:41.803Z,7.03
2019-01-14T06:08:11.266Z,6.63
2019-01-14T06:10:40.771Z,5.97
2019-01-14T06:13:10.234Z,6.93
2019-01-14T06:15:39.686Z,6.63
2019-01-14T06:18:09.173Z,6.60
2019-01-14T06:20:38.619Z,6.57
2019-01-14T06:23:08.048Z,5.87
2019-01-14T06:25:37.519Z,6.03
2019-01-14T06:28:06.982Z,5.93
2019-01-14T06:30:36.406Z,5.60
2019-01-14T06:33:05.914Z,5.37
2019-01-14T06:35:35.332Z,4.17
2019-01-14T06:38:04.864Z,4.03
2019-01-14T06:40:34.364Z,4.23
2019-01-14T06:43:03.996Z,4.73
2019-01-14T06:45:33.506Z,5.37
2019-01-14T06:48:04.410Z,6.83
2019-01-14T06:50:33.867Z,6.83
2019-01-14T06:53:03.312Z,7.80
2019-01-14T06:55:33.481Z,7.03
2019-01-14T06:58:03.175Z,7.07
2019-01-14T07:00:32.929Z,6.37
2019-01-14T07:03:02.373Z,5.87
2019-01-14T07:05:31.816Z,6.10
2019-01-14T07:08:01.302Z,5.13
2019-01-14T07:10:31.542Z,5.77
2019-01-14T07:13:02.941Z,5.57
2019-01-14T07:15:32.419Z,6.20
2019-01-14T07:18:02.134Z,4.93
2019-01-14T07:20:31.680Z,4.70
2019-01-14T07:23:01.473Z,5.30
2019-01-14T07:25:32.945Z,4.93
2019-01-14T07:28:02.411Z,6.60
2019-01-14T07:30:32.197Z,9.13
2019-01-14T07:33:02.022Z,6.77
2019-01-14T07:35:31.493Z,5.73
2019-01-14T07:38:06.664Z,6.87
2019-01-14T07:40:32.391Z,5.53
2019-01-14T07:43:02.757Z,5.17
2019-01-14T07:45:33.399Z,4.27
2019-01-14T07:48:02.874Z,4.10
2019-01-14T07:50:32.301Z,4.30
2019-01-14T07:53:02.947Z,5.30
2019-01-14T07:55:33.853Z,6.37
2019-01-14T07:58:03.304Z,5.87
2019-01-14T08:00:32.744Z,4.60
2019-01-14T08:03:02.269Z,5.13
2019-01-14T08:05:31.772Z,3.17
2019-01-14T08:08:01.241Z,3.80
2019-01-14T08:10:30.717Z,3.70
2019-01-14T08:13:00.136Z,2.83
2019-01-14T08:15:29.579Z,2.30
2019-01-14T08:17:59.019Z,2.13
2019-01-14T08:20:28.505Z,1.90
2019-01-14T08:22:57.942Z,1.87
2019-01-14T08:25:27.355Z,1.90
2019-01-14T08:27:56.845Z,1.37
2019-01-14T08:30:26.291Z,1.70
2019-01-14T08:32:55.718Z,1.97
2019-01-14T08:35:25.232Z,1.70
2019-01-14T08:37:54.655Z,2.20
2019-01-14T08:40:24.084Z,3.80
2019-01-14T08:42:53.579Z,2.80
2019-01-14T08:45:23.002Z,2.10
2019-01-14T08:47:52.421Z,2.80
2019-01-14T08:50:22.277Z,3.00
2019-01-14T08:52:52.130Z,2.93
2019-01-14T08:55:21.669Z,2.80
2019-01-14T08:57:54.686Z,2.80
2019-01-14T09:00:23.135Z,2.27
2019-01-14T09:02:52.599Z,2.70
2019-01-14T09:05:22.100Z,2.20
2019-01-14T09:07:51.523Z,1.87
2019-01-14T09:10:25.860Z,1.83
2019-01-14T09:12:55.274Z,1.80
2019-01-14T09:15:24.723Z,2.20
2019-01-14T09:17:54.309Z,2.23
2019-01-14T09:20:24.862Z,2.50
2019-01-14T09:22:54.300Z,3.60
2019-01-14T09:25:23.875Z,3.30
2019-01-14T09:27:53.461Z,3.73
2019-01-14T09:30:26.695Z,3.30
2019-01-14T09:32:56.438Z,3.17
2019-01-14T09:35:25.865Z,2.30
2019-01-14T09:37:55.272Z,2.37
2019-01-14T09:40:25.646Z,2.40
2019-01-14T09:42:55.069Z,2.17
2019-01-14T09:45:24.526Z,2.17
2019-01-14T09:47:54.147Z,2.20
2019-01-14T09:50:23.609Z,1.70
2019-01-14T09:52:53.105Z,2.10
2019-01-14T09:55:22.552Z,1.77
2019-01-14T09:57:51.966Z,1.83
2019-01-14T10:00:21.444Z,1.87
2019-01-14T10:02:55.415Z,2.40
2019-01-14T10:05:21.997Z,1.87
2019-01-14T10:07:51.476Z,1.57
2019-01-14T10:10:21.297Z,1.40
2019-01-14T10:12:50.746Z,1.83
2019-01-14T10:15:27.961Z,1.60
2019-01-14T10:18:00.582Z,2.00
2019-01-14T10:20:30.060Z,1.90
2019-01-14T10:22:59.456Z,2.37
2019-01-14T10:25:28.894Z,2.00
2019-01-14T10:27:58.332Z,3.17
2019-01-14T10:30:27.726Z,3.53
2019-01-14T10:32:57.467Z,3.53
2019-01-14T10:35:26.898Z,3.53
2019-01-14T10:37:56.314Z,1.73
2019-01-14T10:40:25.787Z,3.13
2019-01-14T10:42:55.216Z,2.17
2019-01-14T10:45:25.204Z,2.53
2019-01-14T10:47:54.708Z,2.63
2019-01-14T10:50:24.172Z,1.90
2019-01-14T10:52:53.588Z,2.37
2019-01-14T10:55:23.077Z,2.17
2019-01-14T10:57:52.614Z,1.63
2019-01-14T11:00:24.478Z,2.00
2019-01-14T11:02:54.014Z,1.60
2019-01-14T11:05:29.067Z,2.00
2019-01-14T11:07:58.564Z,1.70
2019-01-14T11:10:28.005Z,1.90
2019-01-14T11:12:57.452Z,1.73
2019-01-14T11:15:26.963Z,2.00
2019-01-14T11:17:56.398Z,1.70
2019-01-14T11:20:28.041Z,1.57
2019-01-14T11:22:57.595Z,1.73
2019-01-14T11:25:27.229Z,2.47
2019-01-14T11:27:57.024Z,1.90
2019-01-14T11:30:29.016Z,1.50
2019-01-14T11:32:58.548Z,1.50
2019-01-14T11:35:27.997Z,1.57
2019-01-14T11:37:57.515Z,1.60
2019-01-14T11:40:38.276Z,1.70
2019-01-14T11:43:07.877Z,1.80
2019-01-14T11:45:37.297Z,1.53
2019-01-14T11:48:07.243Z,2.30
2019-01-14T11:50:36.691Z,1.70
2019-01-14T11:53:06.123Z,1.80
2019-01-14T11:55:35.550Z,1.60
2019-01-14T11:58:05.224Z,1.97
2019-01-14T12:00:36.908Z,1.93
2019-01-14T12:03:05.675Z,1.63
2019-01-14T12:05:35.159Z,2.07
2019-01-14T12:08:05.224Z,2.87
2019-01-14T12:10:34.674Z,2.30
2019-01-14T12:13:05.459Z,2.03
2019-01-14T12:15:34.930Z,2.33
2019-01-14T12:18:05.013Z,3.47
2019-01-14T12:20:34.516Z,2.67
2019-01-14T12:23:04.472Z,3.40
2019-01-14T12:25:33.897Z,2.73
2019-01-14T12:28:03.605Z,1.77
2019-01-14T12:30:38.687Z,2.50
2019-01-14T12:33:08.165Z,1.97
2019-01-14T12:35:37.639Z,1.63
2019-01-14T12:38:07.278Z,1.33
2019-01-14T12:40:36.761Z,1.63
2019-01-14T12:43:06.626Z,1.50
2019-01-14T12:45:36.189Z,1.53
2019-01-14T12:48:06.238Z,1.70
2019-01-14T12:50:35.900Z,1.43
2019-01-14T12:53:05.518Z,1.37
2019-01-14T12:55:34.981Z,2.00
2019-01-14T12:58:04.400Z,2.20
2019-01-14T13:00:33.836Z,2.23
2019-01-14T13:03:03.340Z,1.80
2019-01-14T13:05:32.863Z,1.70
2019-01-14T13:08:02.367Z,1.97
2019-01-14T13:10:31.851Z,1.77
2019-01-14T13:13:01.298Z,2.10
2019-01-14T13:15:30.726Z,2.10
2019-01-14T13:18:05.312Z,2.50
2019-01-14T13:20:31.289Z,1.70
2019-01-14T13:23:00.704Z,1.97
2019-01-14T13:25:30.140Z,1.97
2019-01-14T13:27:59.586Z,2.03
2019-01-14T13:30:30.701Z,1.73
2019-01-14T13:33:00.978Z,2.30
2019-01-14T13:35:30.408Z,2.63
2019-01-14T13:37:59.945Z,2.03
2019-01-14T13:40:29.386Z,2.63
2019-01-14T13:42:58.827Z,2.13
2019-01-14T13:45:28.256Z,2.50
2019-01-14T13:47:57.673Z,1.67
2019-01-14T13:50:27.847Z,1.40
2019-01-14T13:52:57.302Z,1.50
2019-01-14T13:55:26.911Z,1.50
2019-01-14T13:57:59.837Z,1.87
2019-01-14T14:00:28.189Z,2.00
2019-01-14T14:02:57.619Z,1.80
2019-01-14T14:05:27.095Z,2.10
2019-01-14T14:07:56.587Z,1.80
2019-01-14T14:10:28.485Z,1.57
2019-01-14T14:12:59.449Z,1.67
2019-01-14T14:15:29.429Z,4.50
2019-01-14T14:17:58.867Z,3.40
2019-01-14T14:20:28.341Z,3.00
2019-01-14T14:22:57.765Z,3.23
2019-01-14T14:25:30.430Z,3.33
2019-01-14T14:27:59.911Z,4.30
2019-01-14T14:30:31.873Z,3.67
2019-01-14T14:33:01.415Z,3.03
2019-01-14T14:35:30.855Z,2.17
2019-01-14T14:38:01.225Z,2.30
2019-01-14T14:40:30.976Z,2.03
2019-01-14T14:43:00.441Z,1.93
2019-01-14T14:45:29.806Z,1.23
2019-01-14T14:47:59.309Z,2.00
2019-01-14T14:50:28.769Z,1.83
2019-01-14T14:52:58.237Z,1.90
2019-01-14T14:55:27.731Z,13.80
2019-01-14T14:57:57.139Z,3.77
2019-01-14T15:00:26.616Z,5.93
2019-01-14T15:02:56.106Z,4.03
2019-01-14T15:05:25.527Z,3.63
2019-01-14T15:07:55.060Z,4.53
2019-01-14T15:10:24.778Z,3.73
2019-01-14T15:12:54.285Z,12.53
2019-01-14T15:15:24.903Z,6.27
2019-01-14T15:17:54.378Z,4.70
2019-01-14T15:20:24.626Z,3.30
2019-01-14T15:22:54.062Z,8.47
2019-01-14T15:25:23.518Z,17.30
2019-01-14T15:27:52.985Z,12.17
2019-01-14T15:30:27.951Z,5.40
2019-01-14T15:32:57.372Z,9.07
2019-01-14T15:35:26.991Z,6.07
2019-01-14T15:37:56.482Z,12.47
2019-01-14T15:40:26.282Z,12.73
2019-01-14T15:42:55.718Z,9.50
2019-01-14T15:45:26.487Z,7.20
2019-01-14T15:47:55.970Z,8.83
2019-01-14T15:50:25.392Z,11.67
2019-01-14T15:52:54.908Z,7.93
2019-01-14T15:55:26.205Z,8.77
2019-01-14T15:57:55.704Z,9.43
2019-01-14T16:00:26.085Z,8.90
2019-01-14T16:02:55.826Z,8.80
2019-01-14T16:05:25.548Z,5.97
2019-01-14T16:07:55.037Z,6.17
2019-01-14T16:10:26.020Z,4.50
2019-01-14T16:12:55.612Z,4.73
2019-01-14T16:15:26.897Z,5.17
2019-01-14T16:17:56.299Z,4.67
2019-01-14T16:20:27.040Z,5.07
2019-01-14T16:22:56.725Z,4.37
2019-01-14T16:25:26.156Z,5.10
2019-01-14T16:27:55.593Z,4.20
2019-01-14T16:30:28.776Z,4.60
2019-01-14T16:32:58.215Z,4.57
2019-01-14T16:35:27.672Z,5.37
2019-01-14T16:37:57.968Z,4.73
2019-01-14T16:40:27.387Z,4.97
2019-01-14T16:42:56.815Z,5.37
2019-01-14T16:45:27.576Z,5.50
2019-01-14T16:47:57.128Z,5.17
2019-01-14T16:50:26.603Z,4.57
2019-01-14T16:52:56.069Z,5.70
2019-01-14T16:55:53.557Z,5.33
2019-01-14T16:58:23.068Z,4.70
2019-01-14T17:00:52.539Z,5.10
2019-01-14T17:03:21.981Z,5.23
2019-01-14T17:05:51.513Z,5.20
2019-01-14T17:08:20.963Z,5.07
2019-01-14T17:10:50.425Z,4.80
2019-01-14T17:13:19.847Z,4.13
2019-01-14T17:15:49.313Z,4.37
2019-01-14T17:18:18.762Z,6.03
2019-01-14T17:20:48.186Z,4.13
2019-01-14T17:23:17.672Z,4.17
2019-01-14T17:25:47.111Z,5.10
2019-01-14T17:28:16.675Z,3.97
2019-01-14T17:30:46.179Z,4.50
2019-01-14T17:33:15.750Z,5.23
2019-01-14T17:35:45.242Z,6.60
2019-01-14T17:38:14.715Z,4.80
2019-01-14T17:40:44.211Z,10.77
2019-01-14T17:43:13.674Z,9.10
2019-01-14T17:45:43.166Z,12.70
2019-01-14T17:48:12.656Z,10.43
2019-01-14T17:50:42.175Z,10.43
2019-01-14T17:53:11.662Z,8.73
2019-01-14T17:55:41.226Z,8.77
2019-01-14T17:58:10.714Z,11.37
2019-01-14T18:00:45.240Z,9.63
2019-01-14T18:03:14.751Z,5.73
2019-01-14T18:05:44.219Z,7.17
2019-01-14T18:08:13.760Z,10.30
2019-01-14T18:10:43.246Z,7.80
2019-01-14T18:13:12.701Z,8.97
2019-01-14T18:15:42.181Z,6.73
2019-01-14T18:18:11.723Z,10.50
2019-01-14T18:20:41.177Z,8.57
2019-01-14T18:23:11.490Z,6.87
2019-01-14T18:25:43.382Z,8.03
2019-01-14T18:28:13.420Z,7.97
2019-01-14T18:30:42.972Z,8.27
2019-01-14T18:33:12.553Z,10.63
2019-01-14T18:35:42.099Z,13.43
2019-01-14T18:38:11.564Z,15.70
2019-01-14T18:40:47.088Z,9.30
2019-01-14T18:43:12.171Z,10.53
2019-01-14T18:45:41.630Z,8.17
2019-01-14T18:48:11.118Z,9.77
2019-01-14T18:50:40.610Z,9.40
2019-01-14T18:53:10.063Z,6.73
2019-01-14T18:55:39.647Z,8.20
2019-01-14T18:58:09.121Z,8.03
2019-01-14T19:00:38.686Z,7.33
2019-01-14T19:03:08.154Z,12.23
2019-01-14T19:05:37.687Z,7.23
2019-01-14T19:08:07.186Z,8.00
2019-01-14T19:10:36.759Z,7.17
2019-01-14T19:13:06.267Z,9.40
2019-01-14T19:15:35.744Z,7.23
2019-01-14T19:18:05.361Z,7.63
2019-01-14T19:20:34.854Z,8.43
2019-01-14T19:23:04.453Z,10.73
2019-01-14T19:25:33.977Z,8.17
2019-01-14T19:28:03.561Z,9.97
2019-01-14T19:30:33.154Z,8.27
2019-01-14T19:33:02.676Z,7.67
2019-01-14T19:35:32.170Z,11.70
2019-01-14T19:38:01.612Z,10.40
2019-01-14T19:40:31.119Z,8.60
2019-01-14T19:43:00.589Z,7.33
2019-01-14T19:45:30.057Z,10.10
2019-01-14T19:47:59.590Z,13.40
2019-01-14T19:50:29.041Z,9.03
2019-01-14T19:52:58.533Z,9.97
2019-01-14T19:55:28.064Z,10.37
2019-01-14T19:57:57.615Z,8.13
2019-01-14T20:00:31.030Z,7.13
2019-01-14T20:03:00.555Z,7.50
2019-01-14T20:05:30.132Z,7.93
2019-01-14T20:07:59.711Z,8.40
2019-01-14T20:10:29.212Z,8.83
2019-01-14T20:12:58.801Z,8.50
2019-01-14T20:15:28.243Z,7.73
2019-01-14T20:17:57.779Z,5.80
2019-01-14T20:20:27.257Z,6.77
2019-01-14T20:22:58.417Z,6.60
2019-01-14T20:25:28.075Z,6.90
2019-01-14T20:27:57.564Z,5.47
2019-01-14T20:30:27.342Z,7.70
2019-01-14T20:32:56.867Z,7.20
2019-01-14T20:35:26.334Z,6.93
2019-01-14T20:37:55.795Z,8.60
2019-01-14T20:40:25.314Z,8.37
2019-01-14T20:42:54.756Z,8.40
2019-01-14T20:45:24.202Z,11.43
2019-01-14T20:47:53.749Z,9.53
2019-01-14T20:50:23.522Z,11.73
2019-01-14T20:52:53.186Z,11.07
2019-01-14T20:55:22.728Z,10.93
2019-01-14T20:57:52.172Z,10.67
2019-01-14T21:00:24.667Z,9.43
2019-01-14T21:03:13.288Z,9.97
2019-01-14T21:05:42.822Z,10.37
2019-01-14T21:08:12.287Z,9.87
2019-01-14T21:10:41.756Z,14.13
2019-01-14T21:13:11.253Z,9.23
2019-01-14T21:15:40.717Z,8.67
2019-01-14T21:18:11.848Z,8.83
2019-01-14T21:20:41.368Z,8.93
2019-01-14T21:23:10.809Z,7.23
2019-01-14T21:25:40.292Z,7.90
2019-01-14T21:28:09.796Z,6.57
2019-01-14T21:30:39.459Z,6.47
2019-01-14T21:33:08.903Z,7.60
2019-01-14T21:35:38.382Z,7.20
2019-01-14T21:38:07.806Z,9.73
2019-01-14T21:40:37.246Z,6.57
2019-01-14T21:43:06.730Z,5.53
2019-01-14T21:45:36.157Z,5.50
2019-01-14T21:48:05.714Z,5.27
2019-01-14T21:50:35.205Z,5.23
2019-01-14T21:53:04.639Z,5.37
2019-01-14T21:55:34.075Z,4.50
2019-01-14T21:58:04.199Z,4.83
2019-01-14T22:00:33.677Z,5.33
2019-01-14T22:03:03.131Z,6.00
2019-01-14T22:05:32.594Z,5.07
2019-01-14T22:08:02.073Z,5.20
2019-01-14T22:10:31.529Z,4.30
2019-01-14T22:13:00.978Z,4.23
2019-01-14T22:15:30.489Z,4.67
2019-01-14T22:17:59.941Z,4.53
2019-01-14T22:20:30.996Z,4.93
2019-01-14T22:23:00.495Z,4.23
2019-01-14T22:25:30.078Z,4.47
2019-01-14T22:27:59.514Z,5.00
2019-01-14T22:30:34.040Z,4.43
2019-01-14T22:33:03.456Z,5.17
2019-01-14T22:35:32.885Z,8.37
2019-01-14T22:38:02.399Z,9.27
2019-01-14T22:40:31.857Z,7.33
2019-01-14T22:43:01.319Z,6.10
2019-01-14T22:45:30.806Z,6.47
2019-01-14T22:48:00.248Z,5.00
2019-01-14T22:50:29.696Z,7.47
2019-01-14T22:52:59.170Z,5.60
2019-01-14T22:55:28.645Z,7.00
2019-01-14T22:57:58.114Z,5.53
2019-01-14T23:00:50.721Z,5.07
2019-01-14T23:03:20.765Z,4.73
2019-01-14T23:05:50.331Z,4.83
2019-01-14T23:08:19.840Z,4.13
2019-01-14T23:10:50.755Z,4.20
2019-01-14T23:13:20.485Z,3.53
2019-01-14T23:15:49.947Z,4.77
2019-01-14T23:18:19.371Z,3.37
2019-01-14T23:20:48.822Z,4.17
2019-01-14T23:23:18.334Z,3.23
2019-01-14T23:25:47.826Z,4.07
2019-01-14T23:28:17.268Z,3.93
2019-01-14T23:30:46.697Z,2.93
2019-01-14T23:33:16.176Z,3.23
2019-01-14T23:35:45.614Z,3.57
2019-01-14T23:38:15.041Z,3.30
2019-01-14T23:40:44.492Z,3.83
2019-01-14T23:43:13.953Z,3.70
2019-01-14T23:45:43.439Z,3.83
2019-01-14T23:48:12.893Z,3.43
2019-01-14T23:50:42.353Z,2.50
2019-01-14T23:53:11.798Z,2.77
2019-01-14T23:55:41.242Z,3.23
2019-01-14T23:58:10.674Z,3.20
